dimanche 23 février 2014

ALERTE SPOTTING 23/02/14


 744 EC-KQC Pullmantur Air
   PLM 6121/PLM710P  08h50/10h50

IL9 Cubana CU-T1250
   CU444/CU445  15h05/17h05

77W F-GZNF Air France   arv AF376Y/AF642 19h10/21H05


Manque les prévisions/immats UX / BE / AZ / TP / BA / TU / certains AH
*** Heures en Local Time / prévisions soumises
 à modifications de dernières minutes ***

le TAF de la journée



METAR: LFPO 230300Z 20004KT 170V240 0800 R02///// R26///// R08/////
R24///// R06///// FG VV/// 05/04 Q1019 NOSIG=
TAF LONG: AMD LFPO 230039Z 2300/2406 18005KT 2500 BR BKN005 TEMPO 2300/2308
0800 FG BKN002 PROB40 TEMPO 2300/2307 0200 FG VV/// BECMG 2308/2311
9999 SCT015 BECMG 2315/2317 17007KT CAVOK BECMG 2400/2402 7000 NSC
TEMPO 2402/2406 3000 BR SCT006=
  
   Les logs des jours précédents :
 http://www.airkalo.com/ORLYAVIATION/Logdumois.html